createdAt,value
2018-10-01T04:30:26.860Z,9.60
2018-10-01T04:33:10.196Z,8.30
2018-10-01T04:35:49.022Z,8.30
2018-10-01T04:38:20.734Z,8.30
2018-10-01T04:40:50.848Z,8.30
2018-10-01T04:43:23.032Z,8.40
2018-10-01T04:46:22.896Z,8.30
2018-10-01T04:48:54.552Z,8.40
2018-10-01T04:51:25.609Z,8.40
2018-10-01T04:54:13.235Z,8.40
2018-10-01T04:56:53.699Z,8.40
2018-10-01T04:59:29.473Z,8.50
2018-10-01T05:02:00.983Z,8.40
2018-10-01T05:04:31.657Z,8.40
2018-10-01T05:07:03.578Z,8.40
2018-10-01T05:09:49.807Z,8.40
2018-10-01T05:12:20.340Z,8.40
2018-10-01T05:14:51.114Z,8.40
2018-10-01T05:17:23.667Z,8.40
2018-10-01T05:20:10.278Z,8.40
2018-10-01T05:22:42.539Z,8.40
2018-10-01T05:25:12.958Z,8.40
2018-10-01T05:27:54.655Z,8.40
2018-10-01T05:30:31.088Z,8.50
2018-10-01T05:33:01.735Z,8.50
2018-10-01T05:35:34.394Z,8.60
2018-10-01T07:10:06.372Z,10.60
2018-10-01T07:33:40.270Z,10.80
2018-10-01T07:36:13.647Z,10.90
2018-10-01T07:38:48.193Z,11.00
2018-10-01T07:44:15.989Z,11.10
2018-10-01T07:46:54.221Z,11.20
2018-10-01T07:52:11.556Z,11.40
2018-10-01T07:57:28.823Z,11.60
2018-10-01T08:00:14.735Z,11.70
2018-10-01T08:02:44.534Z,11.80
2018-10-01T08:05:14.953Z,11.80
2018-10-01T08:07:53.846Z,11.90
2018-10-01T08:10:39.296Z,12.00
2018-10-01T08:13:35.897Z,12.10
2018-10-01T08:19:26.686Z,12.20
2018-10-01T08:22:17.937Z,12.20
2018-10-01T08:36:14.020Z,12.60
2018-10-01T08:42:02.995Z,12.80
2018-10-01T08:45:12.828Z,13.00
2018-10-01T08:56:56.932Z,13.00
2018-10-01T09:03:33.305Z,13.30
2018-10-01T09:34:06.131Z,13.50
2018-10-01T09:36:42.995Z,13.50
2018-10-01T09:39:30.477Z,13.50
2018-10-01T09:42:08.765Z,13.60
2018-10-01T09:47:35.521Z,13.80
2018-10-01T09:50:05.841Z,13.90
2018-10-01T09:52:48.419Z,14.10
2018-10-01T09:55:36.784Z,14.10
2018-10-01T09:58:27.724Z,14.20
2018-10-01T10:01:06.999Z,14.20
2018-10-01T10:03:49.550Z,14.30
2018-10-01T10:06:19.868Z,14.30
2018-10-01T10:08:58.770Z,14.40
2018-10-01T10:14:44.833Z,14.50
2018-10-01T10:17:30.664Z,14.60
2018-10-01T10:20:10.745Z,14.50
2018-10-01T10:22:57.197Z,14.60
2018-10-01T10:25:37.142Z,14.60
2018-10-01T10:28:14.027Z,14.70
2018-10-01T10:30:46.950Z,14.80
2018-10-01T10:33:20.161Z,14.80
2018-10-01T10:35:58.141Z,14.80
2018-10-01T10:38:31.947Z,14.60
2018-10-01T10:42:46.719Z,14.40
2018-10-01T11:05:03.098Z,13.80
2018-10-01T11:07:42.493Z,13.80
2018-10-01T11:10:24.330Z,13.80
2018-10-01T11:13:00.750Z,13.80
2018-10-01T11:22:07.278Z,13.50
2018-10-01T11:25:08.974Z,13.40
2018-10-01T11:36:38.699Z,13.40
2018-10-01T11:40:10.647Z,13.40
2018-10-01T11:43:23.369Z,13.30
2018-10-01T11:46:21.810Z,13.30
2018-10-01T11:52:21.083Z,13.20
2018-10-01T12:09:00.294Z,13.40
2018-10-01T12:11:30.520Z,13.90
2018-10-01T12:14:01.198Z,13.90
2018-10-01T12:16:41.175Z,13.90
2018-10-01T12:19:18.407Z,13.90
2018-10-01T12:21:50.725Z,13.90
2018-10-01T12:24:23.355Z,13.90
2018-10-01T12:26:58.845Z,13.90
2018-10-01T12:29:35.381Z,13.90
2018-10-01T12:32:37.742Z,13.90
2018-10-01T12:38:13.870Z,13.90
2018-10-01T12:54:31.674Z,13.90
2018-10-01T12:57:06.728Z,13.70
2018-10-01T12:59:53.808Z,13.70
2018-10-01T13:02:29.597Z,13.70
2018-10-01T13:05:22.917Z,13.70
2018-10-01T13:08:02.861Z,13.70
2018-10-01T13:10:41.540Z,13.80
2018-10-01T13:13:33.469Z,13.80
2018-10-01T13:16:14.048Z,13.80
2018-10-01T13:23:28.428Z,13.90
2018-10-01T13:26:01.243Z,13.90
2018-10-01T13:28:33.755Z,13.90
2018-10-01T13:31:05.205Z,13.90
2018-10-01T13:33:49.064Z,13.90
2018-10-01T13:37:07.865Z,13.90
2018-10-01T13:39:43.309Z,13.80
2018-10-01T13:42:35.567Z,13.80
2018-10-01T14:10:40.861Z,13.70
2018-10-01T14:13:25.985Z,13.60
2018-10-01T14:16:50.427Z,13.70
2018-10-01T14:20:52.216Z,13.70
2018-10-01T14:23:47.822Z,13.80
2018-10-01T14:26:48.984Z,13.70
2018-10-01T14:31:03.763Z,13.80
2018-10-01T14:36:55.263Z,13.90
2018-10-01T14:39:26.079Z,13.90
2018-10-01T14:42:09.239Z,13.90
2018-10-01T18:53:03.882Z,11.40
2018-10-01T21:09:35.103Z,10.40
2018-10-01T21:12:34.970Z,10.10
2018-10-01T22:06:48.708Z,9.40
